Time;durP1;ratioP1;P1;durP2;ratioP2;P2;SDS_P1;SDS_P2;PMS_P1;PMS_P2;Temp;Humidity;BMP_temperature;BMP_pressure;BME280_temperature;BME280_humidity;BME280_pressure;Samples;Min_cycle;Max_cycle;Signal;HPM_P1;HPM_P2
2021/09/02 00:02:03;;;;;;;11.73;9.30;;;17.80;99.90;;;;;;5097103;28;20004;-38
2021/09/02 00:04:32;;;;;;;10.15;7.68;;;17.80;99.90;;;;;;5097124;28;20024;-39
2021/09/02 00:06:59;;;;;;;10.75;8.20;;;17.80;99.90;;;;;;5094609;28;20013;-38
2021/09/02 00:09:26;;;;;;;11.40;8.05;;;17.80;99.90;;;;;;5099282;28;20097;-40
2021/09/02 00:11:51;;;;;;;11.20;8.85;;;17.80;99.90;;;;;;5091575;28;20051;-39
2021/09/02 00:14:17;;;;;;;11.52;7.68;;;17.70;99.90;;;;;;5102881;28;20020;-40
2021/09/02 00:16:43;;;;;;;14.38;8.93;;;17.80;99.90;;;;;;5092270;28;20016;-34
2021/09/02 00:19:10;;;;;;;12.50;8.90;;;17.70;99.90;;;;;;5102083;28;20077;-35
2021/09/02 00:21:35;;;;;;;11.65;9.38;;;17.70;99.90;;;;;;5090903;28;20066;-38
2021/09/02 00:24:02;;;;;;;11.73;8.70;;;17.60;99.90;;;;;;5102107;28;20058;-38
2021/09/02 00:26:30;;;;;;;13.25;9.25;;;17.60;99.90;;;;;;5091138;28;20084;-39
2021/09/02 00:28:56;;;;;;;10.90;8.85;;;17.60;99.90;;;;;;5101505;28;20036;-39
2021/09/02 00:31:21;;;;;;;13.77;8.88;;;17.60;99.90;;;;;;5090571;28;20032;-40
2021/09/02 00:33:47;;;;;;;11.88;9.07;;;17.60;99.90;;;;;;5101697;28;20518;-37
2021/09/02 00:36:12;;;;;;;14.07;9.20;;;17.60;99.90;;;;;;5091421;28;20625;-39
2021/09/02 00:38:38;;;;;;;10.82;8.20;;;17.60;99.90;;;;;;5091831;28;20024;-39
2021/09/02 00:41:06;;;;;;;12.93;8.80;;;17.60;99.90;;;;;;5089849;28;20146;-40
2021/09/02 00:43:39;;;;;;;14.32;9.38;;;17.50;99.90;;;;;;5097719;28;20022;-38
2021/09/02 00:46:05;;;;;;;;;;;17.50;99.90;;;;;;5105908;28;20477;-39
2021/09/02 00:48:33;;;;;;;15.30;8.85;;;17.50;99.90;;;;;;5104933;28;19903;-37
2021/09/02 00:51:02;;;;;;;12.55;9.35;;;17.40;99.90;;;;;;5103441;28;20036;-37
2021/09/02 00:53:33;;;;;;;13.88;8.95;;;17.40;99.90;;;;;;5106700;28;20115;-38
2021/09/02 00:56:01;;;;;;;14.23;10.02;;;17.50;99.90;;;;;;5102017;28;20023;-39
2021/09/02 00:58:27;;;;;;;13.48;9.73;;;17.40;99.90;;;;;;5108743;28;20057;-39
2021/09/02 01:00:52;;;;;;;14.02;9.60;;;17.40;99.90;;;;;;5099021;28;20509;-38
2021/09/02 01:03:19;;;;;;;11.80;9.15;;;17.40;99.90;;;;;;5109064;28;20035;-36
2021/09/02 01:06:03;;;;;;;13.55;9.43;;;17.40;99.90;;;;;;5098695;28;20024;-40
2021/09/02 01:08:29;;;;;;;12.05;8.95;;;17.40;99.90;;;;;;5108708;28;20043;-36
2021/09/02 01:10:57;;;;;;;14.70;9.70;;;17.40;99.90;;;;;;5098208;28;20075;-37
2021/09/02 01:13:23;;;;;;;12.15;8.80;;;17.30;99.90;;;;;;5109147;28;20032;-35
2021/09/02 01:15:50;;;;;;;9.93;8.77;;;17.30;99.90;;;;;;5097935;28;20023;-38
2021/09/02 01:18:15;;;;;;;12.70;8.55;;;17.30;99.90;;;;;;5110148;28;20020;-39
2021/09/02 01:20:41;;;;;;;15.85;9.98;;;17.40;99.90;;;;;;5096865;28;20047;-36
2021/09/02 01:23:08;;;;;;;11.60;8.73;;;17.30;99.90;;;;;;5110221;28;20027;-37
2021/09/02 01:25:36;;;;;;;12.52;8.80;;;17.30;99.90;;;;;;5097538;28;20424;-38
2021/09/02 01:28:06;;;;;;;12.60;8.70;;;17.30;99.90;;;;;;5089339;28;20146;-40
2021/09/02 01:30:34;;;;;;;12.10;9.40;;;17.30;99.90;;;;;;5099952;28;20035;-40
2021/09/02 01:33:00;;;;;;;12.15;8.13;;;17.30;99.90;;;;;;5091254;28;20036;-39
2021/09/02 01:35:26;;;;;;;11.00;8.02;;;17.30;99.90;;;;;;5097065;28;20426;-38
2021/09/02 01:37:57;;;;;;;11.25;7.78;;;17.30;99.90;;;;;;5093282;28;20463;-38
2021/09/02 01:40:25;;;;;;;11.60;8.25;;;17.20;99.90;;;;;;5101860;28;20055;-37
2021/09/02 01:42:51;;;;;;;12.52;8.43;;;17.20;99.90;;;;;;5102971;28;20543;-36
2021/09/02 01:45:19;;;;;;;9.88;8.15;;;17.30;99.90;;;;;;5104560;28;20486;-37
2021/09/02 01:47:44;;;;;;;12.10;7.53;;;17.30;99.90;;;;;;5101686;28;20076;-39
2021/09/02 01:50:21;;;;;;;10.75;8.10;;;17.30;99.90;;;;;;5106844;28;20471;-39
2021/09/02 01:52:49;;;;;;;11.05;7.80;;;17.20;99.90;;;;;;5099758;28;20031;-35
2021/09/02 01:55:15;;;;;;;9.52;7.30;;;17.30;99.90;;;;;;5107725;28;20020;-40
2021/09/02 01:57:41;;;;;;;9.82;7.65;;;17.30;99.90;;;;;;5098054;28;20035;-38
2021/09/02 02:00:12;;;;;;;11.65;7.97;;;17.30;99.90;;;;;;5108042;28;20019;-39
2021/09/02 02:02:38;;;;;;;11.80;7.60;;;17.30;99.90;;;;;;5097129;28;20042;-40
2021/09/02 02:05:05;;;;;;;9.60;7.78;;;17.30;99.90;;;;;;5108842;28;20019;-40
2021/09/02 02:07:31;;;;;;;9.98;7.50;;;17.30;99.90;;;;;;5096852;28;20027;-38
2021/09/02 02:10:08;;;;;;;10.20;7.60;;;17.30;99.90;;;;;;5108177;28;20034;-37
2021/09/02 02:12:33;;;;;;;9.43;7.75;;;17.30;99.90;;;;;;5097130;28;20156;-38
2021/09/02 02:14:59;;;;;;;10.43;7.13;;;17.40;99.90;;;;;;5108768;28;20103;-40
2021/09/02 02:17:24;;;;;;;9.88;7.03;;;17.30;99.90;;;;;;5095938;28;20028;-40
2021/09/02 02:19:50;;;;;;;9.45;6.75;;;17.40;99.90;;;;;;5107969;28;20023;-36
2021/09/02 02:22:15;;;;;;;12.90;8.00;;;17.40;99.90;;;;;;5098483;28;20031;-34
2021/09/02 02:24:47;;;;;;;10.85;6.78;;;17.40;99.90;;;;;;5106755;28;20356;-38
2021/09/02 02:27:12;;;;;;;8.65;6.85;;;17.40;99.90;;;;;;5100760;28;20043;-37
2021/09/02 02:29:38;;;;;;;10.73;6.65;;;17.40;99.90;;;;;;5105562;28;20467;-39
2021/09/02 02:32:04;;;;;;;11.05;6.60;;;17.40;99.90;;;;;;5101921;28;20024;-37
2021/09/02 02:34:29;;;;;;;10.10;6.40;;;17.40;99.90;;;;;;5101993;28;20043;-38
2021/09/02 02:36:55;;;;;;;10.00;6.47;;;17.30;99.90;;;;;;5104696;28;20031;-36
2021/09/02 02:39:20;;;;;;;9.68;6.30;;;17.40;99.90;;;;;;5100353;28;20034;-36
2021/09/02 02:41:46;;;;;;;8.18;6.10;;;17.40;99.90;;;;;;5107291;28;20028;-35
2021/09/02 02:44:11;;;;;;;8.95;5.88;;;17.30;99.90;;;;;;5097804;28;20507;-37
2021/09/02 02:46:37;;;;;;;8.55;7.03;;;17.30;99.90;;;;;;5106785;28;20024;-36
2021/09/02 02:49:02;;;;;;;10.65;7.25;;;17.30;99.90;;;;;;5096797;28;20019;-39
2021/09/02 02:51:28;;;;;;;8.98;6.50;;;17.20;99.90;;;;;;5109251;28;20479;-38
2021/09/02 02:53:54;;;;;;;7.35;5.80;;;17.20;99.90;;;;;;5098038;28;20038;-40
2021/09/02 02:56:19;;;;;;;8.70;6.00;;;17.20;99.90;;;;;;5112154;28;20034;-38
2021/09/02 02:58:47;;;;;;;10.52;7.20;;;17.20;99.90;;;;;;5100201;28;20107;-39
2021/09/02 03:01:12;;;;;;;9.30;7.18;;;17.10;99.90;;;;;;5113045;28;20102;-35
2021/09/02 03:03:38;;;;;;;12.27;6.95;;;17.10;99.90;;;;;;5102052;28;20518;-38
2021/09/02 03:06:03;;;;;;;9.30;7.28;;;17.20;99.90;;;;;;5110030;28;20023;-38
2021/09/02 03:08:29;;;;;;;8.73;6.57;;;17.20;99.90;;;;;;5104860;28;20016;-39
2021/09/02 03:11:00;;;;;;;10.85;6.13;;;17.20;99.90;;;;;;5107617;28;20494;-40
2021/09/02 03:13:26;;;;;;;8.98;6.65;;;17.20;99.90;;;;;;5105966;28;20036;-39
2021/09/02 03:15:51;;;;;;;9.50;7.13;;;17.20;99.90;;;;;;5105899;28;20026;-40
2021/09/02 03:18:17;;;;;;;11.10;6.72;;;17.30;99.90;;;;;;5109002;28;20057;-37
2021/09/02 03:20:42;;;;;;;11.00;6.82;;;17.20;99.90;;;;;;5102148;28;20174;-40
2021/09/02 03:23:08;;;;;;;8.95;7.60;;;17.30;99.90;;;;;;5110649;28;20035;-35
2021/09/02 03:25:36;;;;;;;10.48;7.57;;;17.30;99.90;;;;;;5102059;28;20020;-38
2021/09/02 03:28:05;;;;;;;11.20;7.93;;;17.20;99.90;;;;;;5110025;28;20106;-37
2021/09/02 03:30:30;;;;;;;14.77;8.65;;;17.20;99.90;;;;;;5100953;28;20026;-39
2021/09/02 03:32:56;;;;;;;11.82;7.63;;;17.20;99.90;;;;;;5111534;28;20107;-37
2021/09/02 03:35:21;;;;;;;9.27;7.15;;;17.20;99.90;;;;;;5098609;28;20756;-37
2021/09/02 03:37:47;;;;;;;10.18;8.27;;;17.20;99.90;;;;;;5112249;28;20020;-39
2021/09/02 03:40:13;;;;;;;10.82;7.95;;;17.20;99.90;;;;;;5106095;28;20015;-37
2021/09/02 03:42:39;;;;;;;10.65;7.68;;;17.20;99.90;;;;;;5091395;28;20047;-38
2021/09/02 03:45:07;;;;;;;11.63;8.60;;;17.20;99.90;;;;;;5102881;28;20070;-39
2021/09/02 03:47:32;;;;;;;11.00;8.10;;;17.20;99.90;;;;;;5092224;28;20036;-39
2021/09/02 03:49:58;;;;;;;11.38;8.68;;;17.20;99.90;;;;;;5099238;28;20034;-38
2021/09/02 03:52:23;;;;;;;11.55;8.57;;;17.20;99.90;;;;;;5095251;28;20459;-39
2021/09/02 03:54:52;;;;;;;13.73;9.00;;;17.10;99.90;;;;;;5096912;28;20012;-37
2021/09/02 03:57:17;;;;;;;10.23;8.43;;;17.10;99.90;;;;;;5097994;28;20451;-38
2021/09/02 03:59:46;;;;;;;11.77;8.80;;;17.10;99.90;;;;;;5094666;28;20111;-38
2021/09/02 04:02:11;;;;;;;11.77;8.32;;;17.10;99.90;;;;;;5098050;28;20028;-39
2021/09/02 04:04:37;;;;;;;10.55;7.80;;;17.10;99.90;;;;;;5092330;28;20020;-39
2021/09/02 04:07:02;;;;;;;10.50;8.02;;;17.10;99.90;;;;;;5102380;28;20077;-37
2021/09/02 04:09:28;;;;;;;11.50;7.55;;;17.10;99.90;;;;;;5091804;28;20490;-37
2021/09/02 04:11:53;;;;;;;12.60;7.93;;;17.00;99.90;;;;;;5102354;28;20043;-38
2021/09/02 04:14:19;;;;;;;11.73;8.95;;;17.00;99.90;;;;;;5091930;28;20413;-39
2021/09/02 04:16:44;;;;;;;16.02;9.50;;;17.00;99.90;;;;;;5102789;28;20479;-39
2021/09/02 04:19:10;;;;;;;13.02;8.98;;;17.00;99.90;;;;;;5091300;28;20417;-40
2021/09/02 04:21:38;;;;;;;11.88;8.30;;;17.00;99.90;;;;;;5103544;28;20015;-36
2021/09/02 04:24:04;;;;;;;10.85;8.20;;;17.00;99.90;;;;;;5090559;28;20046;-39
2021/09/02 04:26:29;;;;;;;10.00;8.35;;;16.90;99.90;;;;;;5102403;28;20542;-40
2021/09/02 04:28:57;;;;;;;15.90;8.57;;;16.90;99.90;;;;;;5091251;28;20510;-38
2021/09/02 04:31:23;;;;;;;10.45;7.75;;;16.90;99.90;;;;;;5099688;28;20027;-39
2021/09/02 04:33:48;;;;;;;11.07;8.35;;;16.90;99.90;;;;;;5093924;28;20013;-37
2021/09/02 04:36:14;;;;;;;11.55;7.38;;;16.90;99.90;;;;;;5097249;28;20031;-39
2021/09/02 04:38:42;;;;;;;10.45;7.70;;;16.90;99.90;;;;;;5101368;28;20042;-37
2021/09/02 04:41:09;;;;;;;8.63;7.72;;;16.90;99.90;;;;;;5106910;28;20062;-39
2021/09/02 04:43:34;;;;;;;9.85;7.72;;;16.90;99.90;;;;;;5102838;28;20125;-39
2021/09/02 04:46:03;;;;;;;11.63;8.15;;;16.90;99.90;;;;;;5107215;28;20107;-40
2021/09/02 04:48:28;;;;;;;12.88;8.13;;;16.90;99.90;;;;;;5101045;28;20031;-38
2021/09/02 04:50:54;;;;;;;10.05;7.72;;;16.90;99.90;;;;;;5108871;28;20563;-38
2021/09/02 04:53:20;;;;;;;12.25;8.13;;;17.00;99.90;;;;;;5099355;28;20020;-39
2021/09/02 04:55:45;;;;;;;13.00;8.13;;;16.90;99.90;;;;;;5110332;28;20051;-35
2021/09/02 04:58:12;;;;;;;13.93;8.18;;;17.00;99.90;;;;;;5097184;28;20099;-39
2021/09/02 05:00:39;;;;;;;13.15;8.60;;;17.00;99.90;;;;;;5110351;28;20430;-39
2021/09/02 05:03:06;;;;;;;11.10;8.23;;;16.90;99.90;;;;;;5097205;28;20020;-40
2021/09/02 05:05:31;;;;;;;11.20;7.93;;;16.90;99.90;;;;;;5109981;28;20505;-39
2021/09/02 05:07:57;;;;;;;15.88;9.15;;;16.90;99.90;;;;;;5097200;28;20034;-35
2021/09/02 05:10:22;;;;;;;13.23;8.65;;;16.90;99.90;;;;;;5109391;28;20498;-39
2021/09/02 05:12:49;;;;;;;15.07;8.93;;;16.90;99.90;;;;;;5099550;28;20016;-40
2021/09/02 05:15:15;;;;;;;17.02;9.20;;;16.90;99.90;;;;;;5106809;28;20034;-39
2021/09/02 05:17:40;;;;;;;13.60;8.60;;;16.90;99.90;;;;;;5102647;28;20387;-40
2021/09/02 05:20:06;;;;;;;11.13;7.80;;;16.90;99.90;;;;;;5103959;28;20031;-39
2021/09/02 05:22:33;;;;;;;12.07;8.13;;;16.90;99.90;;;;;;5105437;28;20027;-39
2021/09/02 05:25:01;;;;;;;15.45;9.60;;;16.90;99.90;;;;;;5101976;28;20420;-35
2021/09/02 05:27:27;;;;;;;15.73;9.00;;;16.90;99.90;;;;;;5107149;28;20114;-37
2021/09/02 05:29:52;;;;;;;13.32;7.75;;;16.80;99.90;;;;;;5098863;28;20127;-36
2021/09/02 05:32:18;;;;;;;15.50;8.05;;;16.80;99.90;;;;;;5109094;28;20034;-37
2021/09/02 05:34:43;;;;;;;12.52;7.93;;;16.90;99.90;;;;;;5097720;28;20359;-38
2021/09/02 05:37:09;;;;;;;12.85;7.38;;;16.90;99.90;;;;;;5109049;28;20531;-38
2021/09/02 05:39:37;;;;;;;10.23;6.88;;;16.90;99.90;;;;;;5105121;28;20562;-40
2021/09/02 05:42:03;;;;;;;10.65;6.47;;;16.90;99.90;;;;;;5108879;28;20031;-37
2021/09/02 05:44:30;;;;;;;13.48;6.72;;;17.00;99.90;;;;;;5096556;28;20600;-36
2021/09/02 05:46:55;;;;;;;13.60;6.65;;;17.00;99.90;;;;;;5109225;28;20043;-40
2021/09/02 05:49:21;;;;;;;9.25;6.50;;;17.00;99.90;;;;;;5097844;28;20073;-39
2021/09/02 05:51:47;;;;;;;9.40;6.47;;;17.00;99.90;;;;;;5093128;28;20471;-40
2021/09/02 05:54:13;;;;;;;12.70;7.88;;;17.00;99.90;;;;;;5100088;28;20039;-39
2021/09/02 05:56:39;;;;;;;11.82;6.35;;;17.00;99.90;;;;;;5101972;28;20020;-40
2021/09/02 05:59:07;;;;;;;13.30;7.40;;;17.00;99.90;;;;;;5101642;28;20039;-35
2021/09/02 06:01:33;;;;;;;8.43;5.88;;;17.00;99.90;;;;;;5108786;28;20032;-39
2021/09/02 06:03:59;;;;;;;11.95;5.95;;;17.00;99.90;;;;;;5104610;28;20103;-37
2021/09/02 06:06:32;;;;;;;8.15;5.68;;;17.10;99.90;;;;;;5096171;28;20444;-39
2021/09/02 06:08:58;;;;;;;7.50;4.93;;;17.10;99.90;;;;;;5090565;28;20375;-39
2021/09/02 06:11:24;;;;;;;9.30;5.30;;;17.10;99.90;;;;;;5095369;28;20044;-38
2021/09/02 06:13:50;;;;;;;10.55;5.60;;;17.10;99.90;;;;;;5090845;28;20092;-39
2021/09/02 06:16:17;;;;;;;8.00;4.82;;;17.20;99.90;;;;;;5096457;28;20035;-38
2021/09/02 06:18:42;;;;;;;7.50;5.18;;;17.10;99.90;;;;;;5106978;28;20031;-37
2021/09/02 06:21:08;;;;;;;11.52;5.40;;;17.20;99.90;;;;;;5096652;28;20110;-40
2021/09/02 06:23:35;;;;;;;8.15;4.47;;;17.20;99.90;;;;;;5108660;28;20015;-37
2021/09/02 06:26:00;;;;;;;9.02;5.32;;;17.20;99.90;;;;;;5095957;28;20039;-38
2021/09/02 06:28:31;;;;;;;8.68;4.60;;;17.20;99.90;;;;;;5102632;28;20032;-40
2021/09/02 06:30:57;;;;;;;6.95;4.43;;;17.20;99.90;;;;;;5097867;28;20498;-37
2021/09/02 06:33:22;;;;;;;6.10;4.13;;;17.20;99.90;;;;;;5113921;28;20015;-36
2021/09/02 06:35:48;;;;;;;6.75;3.78;;;17.30;99.90;;;;;;5108571;28;20473;-40
2021/09/02 06:38:43;;;;;;;7.18;3.83;;;17.30;99.90;;;;;;5094050;28;20024;-37
2021/09/02 06:41:09;;;;;;;7.10;3.75;;;17.40;99.90;;;;;;5105660;28;20373;-39
2021/09/02 06:43:35;;;;;;;8.43;4.10;;;17.40;99.90;;;;;;5101083;28;20501;-40
2021/09/02 06:46:01;;;;;;;4.90;3.67;;;17.40;99.90;;;;;;5102682;28;20035;-40
2021/09/02 06:48:26;;;;;;;7.63;3.78;;;17.40;99.90;;;;;;5111037;28;20023;-37
2021/09/02 06:50:52;;;;;;;8.95;4.40;;;17.40;99.90;;;;;;5105736;28;20031;-40
2021/09/02 06:53:18;;;;;;;5.72;3.55;;;17.30;99.90;;;;;;5108260;28;20020;-34
2021/09/02 06:55:43;;;;;;;6.22;3.47;;;17.30;99.90;;;;;;5107747;28;20448;-36
2021/09/02 06:58:09;;;;;;;4.68;3.20;;;17.30;99.90;;;;;;5104801;28;20031;-39
2021/09/02 07:00:35;;;;;;;4.45;3.30;;;17.30;99.90;;;;;;5110501;28;20019;-39
2021/09/02 07:03:01;;;;;;;5.95;3.63;;;17.30;99.90;;;;;;5101489;28;20026;-37
2021/09/02 07:05:27;;;;;;;6.90;3.33;;;17.30;99.90;;;;;;5110669;28;20032;-39
2021/09/02 07:07:54;;;;;;;8.80;4.85;;;17.20;99.90;;;;;;5100551;28;20072;-38
2021/09/02 07:10:22;;;;;;;7.50;3.72;;;17.20;99.90;;;;;;5112122;28;20051;-38
2021/09/02 07:12:48;;;;;;;7.20;3.80;;;17.20;99.90;;;;;;5107368;28;20016;-38
2021/09/02 07:15:14;;;;;;;5.38;3.70;;;17.20;99.90;;;;;;5112800;28;20077;-37
2021/09/02 07:17:39;;;;;;;7.18;3.90;;;17.20;99.90;;;;;;5105112;28;20501;-40
2021/09/02 07:20:05;;;;;;;4.97;3.20;;;17.20;99.90;;;;;;5091714;28;20142;-36
2021/09/02 07:22:34;;;;;;;6.22;3.13;;;17.20;99.90;;;;;;5105486;28;20436;-39
2021/09/02 07:25:00;;;;;;;4.03;3.05;;;17.20;99.90;;;;;;5093464;28;20016;-40
2021/09/02 07:27:25;;;;;;;5.60;3.05;;;17.20;99.90;;;;;;5107880;28;20031;-36
2021/09/02 07:29:51;;;;;;;5.05;3.63;;;17.20;99.90;;;;;;5094469;28;20052;-37
2021/09/02 07:32:16;;;;;;;7.60;3.80;;;17.30;99.90;;;;;;5100441;28;20028;-37
2021/09/02 07:34:43;;;;;;;5.32;3.35;;;17.30;99.90;;;;;;5096624;28;20073;-37
2021/09/02 07:40:01;;;;;;;7.28;3.30;;;17.30;99.90;;;;;;5066255;28;20379;-37
2021/09/02 07:42:27;;;;;;;5.90;3.10;;;17.40;99.90;;;;;;5106705;28;20039;-42
2021/09/02 07:44:52;;;;;;;6.63;3.50;;;17.40;99.90;;;;;;5104383;28;20150;-42
2021/09/02 07:47:18;;;;;;;5.75;3.40;;;17.40;99.90;;;;;;5106976;28;20023;-38
2021/09/02 07:49:44;;;;;;;5.72;3.25;;;17.50;99.90;;;;;;5103726;28;20028;-38
2021/09/02 07:52:10;;;;;;;4.13;3.15;;;17.50;99.90;;;;;;5111305;28;20363;-35
2021/09/02 07:54:36;;;;;;;4.60;3.47;;;17.60;99.90;;;;;;5100475;28;20024;-39
2021/09/02 07:57:06;;;;;;;6.68;3.15;;;17.60;99.90;;;;;;5110679;28;20027;-37
2021/09/02 07:59:32;;;;;;;4.57;3.08;;;17.60;99.90;;;;;;5100145;28;20135;-38
2021/09/02 08:02:01;;;;;;;5.72;3.47;;;17.70;99.90;;;;;;5110603;28;20020;-35
2021/09/02 08:04:27;;;;;;;6.88;3.35;;;17.80;99.90;;;;;;5100975;28;20020;-40
2021/09/02 08:06:52;;;;;;;3.50;2.70;;;17.90;99.90;;;;;;5111826;28;20022;-38
2021/09/02 08:09:18;;;;;;;4.15;3.20;;;18.00;99.90;;;;;;5099159;28;20031;-37
2021/09/02 08:11:46;;;;;;;4.55;3.33;;;18.00;99.90;;;;;;5111568;28;20093;-37
2021/09/02 08:14:12;;;;;;;4.90;3.03;;;18.20;99.90;;;;;;5099166;28;20055;-38
2021/09/02 08:16:38;;;;;;;6.13;3.42;;;18.20;99.90;;;;;;5111196;28;20028;-37
2021/09/02 08:19:04;;;;;;;6.55;3.17;;;18.40;99.90;;;;;;5101399;28;20073;-39
2021/09/02 08:21:33;;;;;;;4.47;2.97;;;18.40;99.90;;;;;;5108251;28;20063;-38
2021/09/02 08:23:59;;;;;;;3.75;2.95;;;18.50;99.90;;;;;;5101526;28;20027;-37
2021/09/02 08:26:28;;;;;;;6.97;4.03;;;18.60;99.90;;;;;;5106611;28;20024;-39
2021/09/02 08:28:54;;;;;;;6.80;4.28;;;18.70;99.90;;;;;;5104673;28;20020;-39
2021/09/02 08:31:19;;;;;;;5.13;3.33;;;18.70;99.90;;;;;;5102863;28;20043;-40
2021/09/02 08:33:45;;;;;;;6.75;3.30;;;18.80;99.90;;;;;;5107834;28;20023;-40
2021/09/02 08:36:10;;;;;;;4.82;2.90;;;18.80;99.90;;;;;;5100537;28;20032;-35
2021/09/02 08:38:40;;;;;;;5.70;3.88;;;18.90;99.90;;;;;;5107810;28;20065;-38
2021/09/02 08:41:07;;;;;;;6.70;3.75;;;19.00;99.90;;;;;;5101580;28;20383;-39
2021/09/02 08:43:36;;;;;;;6.38;3.65;;;19.10;99.90;;;;;;5108173;28;20565;-37
2021/09/02 08:46:03;;;;;;;9.55;4.47;;;19.20;99.90;;;;;;5098117;28;20026;-39
2021/09/02 08:48:30;;;;;;;5.65;3.78;;;19.30;99.90;;;;;;5110914;28;20016;-39
2021/09/02 08:50:55;;;;;;;6.38;3.60;;;19.30;99.90;;;;;;5096129;28;20039;-38
2021/09/02 08:53:22;;;;;;;5.80;3.42;;;19.40;99.90;;;;;;5111203;28;20020;-39
2021/09/02 08:55:47;;;;;;;5.20;3.50;;;19.40;99.90;;;;;;5096918;28;20053;-37
2021/09/02 08:58:13;;;;;;;6.28;3.35;;;19.50;99.90;;;;;;5109936;28;20118;-40
2021/09/02 09:00:42;;;;;;;6.18;3.67;;;19.50;99.50;;;;;;5099082;28;20028;-36
2021/09/02 09:03:07;;;;;;;5.95;3.97;;;19.50;99.80;;;;;;5109823;28;20023;-39
2021/09/02 09:05:35;;;;;;;5.38;3.40;;;19.50;99.80;;;;;;5101036;28;20024;-40
2021/09/02 09:08:10;;;;;;;4.95;3.47;;;19.50;99.80;;;;;;5106038;28;20099;-39
2021/09/02 09:10:35;;;;;;;5.03;3.20;;;19.50;99.80;;;;;;5101555;28;20445;-40
2021/09/02 09:13:03;;;;;;;4.40;3.15;;;19.50;99.80;;;;;;5105197;28;20111;-36
2021/09/02 09:15:44;;;;;;;7.60;3.90;;;19.50;99.80;;;;;;5104610;28;20028;-37
2021/09/02 09:18:22;;;;;;;6.35;3.90;;;19.50;99.70;;;;;;5105943;28;20031;-39
2021/09/02 09:21:14;;;;;;;4.43;3.78;;;19.60;99.60;;;;;;5102598;28;20024;-42
2021/09/02 09:24:04;;;;;;;6.43;4.30;;;19.70;99.40;;;;;;5107232;28;20023;-37
2021/09/02 09:26:31;;;;;;;10.27;4.75;;;19.70;99.10;;;;;;5097016;28;20187;-42
2021/09/02 09:29:15;;;;;;;8.07;4.47;;;19.70;99.00;;;;;;5109318;28;20034;-42
2021/09/02 09:31:41;;;;;;;7.68;5.00;;;19.70;99.20;;;;;;5098213;28;20047;-41
2021/09/02 09:34:07;;;;;;;7.70;5.38;;;19.70;98.90;;;;;;5108655;28;20016;-42
2021/09/02 09:36:35;;;;;;;6.05;4.85;;;19.70;98.60;;;;;;5100705;28;20399;-41
2021/09/02 09:39:17;;;;;;;7.60;4.97;;;19.60;98.50;;;;;;5101422;28;20020;-39
2021/09/02 09:41:45;;;;;;;9.85;5.25;;;19.60;98.40;;;;;;5097973;28;20035;-39
2021/09/02 09:44:29;;;;;;;8.68;5.00;;;19.60;98.40;;;;;;5093463;28;20016;-40
2021/09/02 09:47:09;;;;;;;7.05;5.05;;;19.60;98.40;;;;;;5097523;28;20031;-43
2021/09/02 09:49:41;;;;;;;6.15;4.28;;;19.60;98.30;;;;;;5090443;28;20096;-35
2021/09/02 09:52:21;;;;;;;5.70;4.22;;;19.70;98.30;;;;;;5098174;28;20777;-39
2021/09/02 09:54:47;;;;;;;5.25;4.13;;;19.80;98.10;;;;;;5090023;28;20578;-40
2021/09/02 09:57:13;;;;;;;6.13;4.18;;;19.90;98.00;;;;;;5097920;28;20042;-35
2021/09/02 09:59:44;;;;;;;8.88;5.32;;;20.00;98.00;;;;;;5093096;28;20022;-40
2021/09/02 10:02:10;;;;;;;8.07;5.30;;;20.20;97.60;;;;;;5095536;28;20019;-40
2021/09/02 10:04:38;;;;;;;7.28;4.65;;;20.30;97.30;;;;;;5099749;28;20032;-39
2021/09/02 10:07:05;;;;;;;5.65;3.88;;;20.40;97.10;;;;;;5104134;28;20026;-41
2021/09/02 10:09:32;;;;;;;7.07;4.38;;;20.40;97.00;;;;;;5097170;28;20055;-39
2021/09/02 10:12:03;;;;;;;5.15;3.63;;;20.40;96.60;;;;;;5089962;28;20043;-38
2021/09/02 10:14:30;;;;;;;7.07;4.88;;;20.40;96.70;;;;;;5109182;28;20043;-38
2021/09/02 10:16:57;;;;;;;9.15;5.45;;;20.50;96.80;;;;;;5108130;28;20069;-38
2021/09/02 10:19:25;;;;;;;8.18;4.88;;;20.60;96.60;;;;;;5109074;28;20451;-38
2021/09/02 10:21:52;;;;;;;8.27;4.82;;;20.70;96.60;;;;;;5108657;28;20081;-40
2021/09/02 10:24:39;;;;;;;7.18;4.80;;;20.80;96.60;;;;;;5108593;28;20729;-39
2021/09/02 10:27:30;;;;;;;5.22;3.90;;;20.90;96.50;;;;;;5108968;28;20389;-37
2021/09/02 10:29:55;;;;;;;6.97;4.65;;;21.10;96.40;;;;;;5086407;28;20050;-40
2021/09/02 10:32:27;;;;;;;6.13;4.35;;;21.20;96.30;;;;;;5093639;28;20499;-40
2021/09/02 10:35:15;;;;;;;9.40;5.07;;;21.30;96.20;;;;;;5108084;28;20055;-43
2021/09/02 10:37:44;;;;;;;7.30;4.60;;;21.50;95.90;;;;;;5094612;28;20036;-42
2021/09/02 10:40:19;;;;;;;6.65;4.70;;;21.70;95.90;;;;;;5094857;28;20030;-40
2021/09/02 10:42:53;;;;;;;8.45;5.25;;;21.80;95.60;;;;;;5109361;28;20019;-38
2021/09/02 10:45:27;;;;;;;7.72;5.00;;;21.90;95.30;;;;;;5085533;28;20084;-37
2021/09/02 10:47:54;;;;;;;5.35;3.80;;;21.90;94.90;;;;;;5107703;28;20028;-40
2021/09/02 10:50:35;;;;;;;6.95;4.13;;;22.00;95.00;;;;;;5106969;28;20012;-40
2021/09/02 10:53:09;;;;;;;5.68;3.50;;;22.00;94.90;;;;;;5108541;28;20466;-40
2021/09/02 10:55:37;;;;;;;7.35;4.35;;;22.10;95.10;;;;;;5107798;28;20019;-40
2021/09/02 10:58:04;;;;;;;6.18;3.88;;;22.10;94.70;;;;;;5107457;28;20356;-40
2021/09/02 11:00:38;;;;;;;5.93;4.30;;;22.20;95.00;;;;;;5108827;28;20428;-42
2021/09/02 11:03:24;;;;;;;6.13;4.32;;;22.30;94.70;;;;;;5108251;28;20110;-42
2021/09/02 11:06:00;;;;;;;8.43;4.22;;;22.20;94.80;;;;;;5105235;28;20491;-41
2021/09/02 11:08:36;;;;;;;5.03;3.85;;;22.20;94.80;;;;;;5108416;28;20106;-40
2021/09/02 11:11:22;;;;;;;4.53;2.80;;;22.20;94.80;;;;;;5107698;28;20056;-41
2021/09/02 11:13:50;;;;;;;4.32;3.53;;;22.30;94.90;;;;;;5086544;28;20104;-40
2021/09/02 11:16:24;;;;;;;5.10;3.70;;;22.40;94.70;;;;;;5112145;28;20458;-37
2021/09/02 11:18:53;;;;;;;7.03;4.07;;;22.40;94.40;;;;;;5110507;28;20103;-42
2021/09/02 11:21:19;;;;;;;7.70;3.95;;;22.40;94.30;;;;;;5111473;28;20024;-38
2021/09/02 11:23:54;;;;;;;6.55;4.30;;;22.50;94.30;;;;;;5111917;28;20024;-44
2021/09/02 11:26:42;;;;;;;5.25;3.70;;;22.50;93.90;;;;;;5105467;28;20094;-42
2021/09/02 11:29:22;;;;;;;4.43;3.50;;;22.50;94.00;;;;;;5111488;28;20147;-40
2021/09/02 11:32:17;;;;;;;6.63;4.18;;;22.50;94.10;;;;;;5111795;28;20028;-41
2021/09/02 11:34:43;;;;;;;4.43;3.35;;;22.50;93.60;;;;;;5090636;28;20034;-39
2021/09/02 11:37:10;;;;;;;5.53;3.85;;;22.50;93.80;;;;;;5106585;28;20023;-40
2021/09/02 11:39:50;;;;;;;4.85;3.80;;;22.50;93.80;;;;;;5086823;28;20028;-40
2021/09/02 11:42:16;;;;;;;4.57;3.90;;;22.40;93.70;;;;;;5091036;28;20024;-41
2021/09/02 11:44:46;;;;;;;5.95;4.00;;;22.40;93.70;;;;;;5112249;28;20033;-40
2021/09/02 11:47:15;;;;;;;5.55;4.35;;;22.30;93.10;;;;;;5111855;28;20028;-40
2021/09/02 11:49:41;;;;;;;6.18;4.00;;;22.10;93.10;;;;;;5111530;28;20015;-38
2021/09/02 11:52:07;;;;;;;6.10;4.13;;;22.10;93.40;;;;;;5104621;28;20506;-40
2021/09/02 11:54:35;;;;;;;6.28;3.78;;;22.00;93.60;;;;;;5111956;28;20024;-38
2021/09/02 11:57:02;;;;;;;5.65;4.05;;;22.00;93.80;;;;;;5111047;28;20023;-38
2021/09/02 11:59:28;;;;;;;5.85;4.28;;;21.90;93.70;;;;;;5112752;28;20025;-35
2021/09/02 12:01:57;;;;;;;6.22;4.40;;;21.90;93.70;;;;;;5110311;28;20035;-39
2021/09/02 12:04:24;;;;;;;5.40;3.80;;;21.90;93.90;;;;;;5112197;28;20106;-38
2021/09/02 12:06:54;;;;;;;5.03;3.08;;;21.90;94.00;;;;;;5111009;28;20112;-38
2021/09/02 12:09:22;;;;;;;4.10;3.70;;;21.90;94.10;;;;;;5090466;28;20024;-41
2021/09/02 12:11:49;;;;;;;6.50;4.10;;;21.90;94.00;;;;;;5104152;28;20090;-41
2021/09/02 12:14:18;;;;;;;5.60;3.97;;;21.90;93.90;;;;;;5110528;28;20019;-36
2021/09/02 12:16:46;;;;;;;4.53;3.90;;;21.90;94.00;;;;;;5111529;28;20538;-37
2021/09/02 12:19:12;;;;;;;4.68;4.20;;;21.90;94.10;;;;;;5111729;28;20114;-38
2021/09/02 12:21:38;;;;;;;6.90;4.10;;;21.90;94.10;;;;;;5110416;28;20115;-40
2021/09/02 12:24:11;;;;;;;4.60;3.80;;;21.90;94.20;;;;;;5106916;28;20020;-43
2021/09/02 12:26:51;;;;;;;7.55;4.43;;;21.90;94.30;;;;;;5086676;28;20034;-39
2021/09/02 12:29:26;;;;;;;5.43;3.50;;;21.90;94.20;;;;;;5111508;28;20015;-36
2021/09/02 12:31:53;;;;;;;4.68;3.85;;;21.90;94.30;;;;;;5087155;28;20078;-37
2021/09/02 12:34:18;;;;;;;5.30;3.28;;;21.80;94.30;;;;;;5111609;28;20019;-40
2021/09/02 12:36:45;;;;;;;4.72;3.35;;;21.90;94.30;;;;;;5110528;28;20115;-35
2021/09/02 12:39:46;;;;;;;5.88;3.70;;;21.90;94.60;;;;;;5110503;28;20467;-40
2021/09/02 12:42:21;;;;;;;9.40;4.38;;;21.90;94.20;;;;;;5105682;28;20175;-38
2021/09/02 12:45:17;;;;;;;6.60;4.15;;;21.90;94.10;;;;;;5111182;28;20102;-38
2021/09/02 12:47:42;;;;;;;5.30;3.60;;;21.90;94.10;;;;;;5111267;28;20020;-39
2021/09/02 12:50:18;;;;;;;7.18;4.47;;;21.90;94.10;;;;;;5109816;28;20510;-38
2021/09/02 12:52:44;;;;;;;5.57;3.97;;;21.90;94.10;;;;;;5110548;28;20181;-38